sensor_id;sensor_type;location;lat;lon;timestamp;P1;durP1;ratioP1;P2;durP2;ratioP2
24559;SDS011;12727;49.934;8.656;2023-04-25T00:02:24;7.88;;;5.30;;
24559;SDS011;12727;49.934;8.656;2023-04-25T00:04:50;6.25;;;4.53;;
24559;SDS011;12727;49.934;8.656;2023-04-25T00:07:16;5.75;;;4.72;;
24559;SDS011;12727;49.934;8.656;2023-04-25T00:09:42;7.68;;;5.30;;
24559;SDS011;12727;49.934;8.656;2023-04-25T00:12:08;6.57;;;5.38;;
24559;SDS011;12727;49.934;8.656;2023-04-25T00:14:34;7.68;;;6.00;;
24559;SDS011;12727;49.934;8.656;2023-04-25T00:17:00;8.63;;;5.53;;
24559;SDS011;12727;49.934;8.656;2023-04-25T00:19:26;6.93;;;5.47;;
24559;SDS011;12727;49.934;8.656;2023-04-25T00:21:53;8.68;;;5.82;;
24559;SDS011;12727;49.934;8.656;2023-04-25T00:24:19;7.90;;;6.03;;
24559;SDS011;12727;49.934;8.656;2023-04-25T00:26:45;7.22;;;5.78;;
24559;SDS011;12727;49.934;8.656;2023-04-25T00:29:10;7.68;;;5.22;;
24559;SDS011;12727;49.934;8.656;2023-04-25T00:31:36;8.63;;;5.93;;
24559;SDS011;12727;49.934;8.656;2023-04-25T00:34:01;7.88;;;5.88;;
24559;SDS011;12727;49.934;8.656;2023-04-25T00:36:27;11.07;;;7.40;;
24559;SDS011;12727;49.934;8.656;2023-04-25T00:38:53;9.20;;;6.53;;
24559;SDS011;12727;49.934;8.656;2023-04-25T00:41:19;8.52;;;6.55;;
24559;SDS011;12727;49.934;8.656;2023-04-25T00:43:45;8.85;;;6.65;;
24559;SDS011;12727;49.934;8.656;2023-04-25T00:46:12;9.23;;;6.45;;
24559;SDS011;12727;49.934;8.656;2023-04-25T00:48:38;8.52;;;6.60;;
24559;SDS011;12727;49.934;8.656;2023-04-25T00:51:03;10.77;;;7.07;;
24559;SDS011;12727;49.934;8.656;2023-04-25T00:53:29;11.93;;;7.07;;
24559;SDS011;12727;49.934;8.656;2023-04-25T00:55:57;9.63;;;6.38;;
24559;SDS011;12727;49.934;8.656;2023-04-25T00:58:23;10.02;;;6.72;;
24559;SDS011;12727;49.934;8.656;2023-04-25T01:00:49;9.95;;;7.50;;
24559;SDS011;12727;49.934;8.656;2023-04-25T01:03:16;11.90;;;7.25;;
24559;SDS011;12727;49.934;8.656;2023-04-25T01:05:59;10.90;;;7.50;;
24559;SDS011;12727;49.934;8.656;2023-04-25T01:08:24;11.00;;;7.72;;
24559;SDS011;12727;49.934;8.656;2023-04-25T01:10:50;11.13;;;6.97;;
24559;SDS011;12727;49.934;8.656;2023-04-25T01:13:16;8.60;;;7.10;;
24559;SDS011;12727;49.934;8.656;2023-04-25T01:15:41;9.65;;;7.30;;
24559;SDS011;12727;49.934;8.656;2023-04-25T01:18:07;9.73;;;7.70;;
24559;SDS011;12727;49.934;8.656;2023-04-25T01:20:33;11.05;;;7.38;;
24559;SDS011;12727;49.934;8.656;2023-04-25T01:22:59;10.93;;;7.28;;
24559;SDS011;12727;49.934;8.656;2023-04-25T01:25:25;10.13;;;7.53;;
24559;SDS011;12727;49.934;8.656;2023-04-25T01:27:51;10.90;;;8.05;;
24559;SDS011;12727;49.934;8.656;2023-04-25T01:30:17;11.85;;;7.82;;
24559;SDS011;12727;49.934;8.656;2023-04-25T01:32:42;11.10;;;8.10;;
24559;SDS011;12727;49.934;8.656;2023-04-25T01:35:09;12.95;;;8.23;;
24559;SDS011;12727;49.934;8.656;2023-04-25T01:37:39;12.50;;;8.23;;
24559;SDS011;12727;49.934;8.656;2023-04-25T01:40:06;10.23;;;8.07;;
24559;SDS011;12727;49.934;8.656;2023-04-25T01:42:33;13.48;;;8.50;;
24559;SDS011;12727;49.934;8.656;2023-04-25T01:45:00;12.05;;;8.32;;
24559;SDS011;12727;49.934;8.656;2023-04-25T01:47:26;9.75;;;7.68;;
24559;SDS011;12727;49.934;8.656;2023-04-25T01:49:52;13.18;;;9.63;;
24559;SDS011;12727;49.934;8.656;2023-04-25T01:52:20;13.82;;;10.00;;
24559;SDS011;12727;49.934;8.656;2023-04-25T01:54:46;15.90;;;10.35;;
24559;SDS011;12727;49.934;8.656;2023-04-25T01:57:12;17.15;;;10.55;;
24559;SDS011;12727;49.934;8.656;2023-04-25T01:59:38;18.42;;;11.45;;
24559;SDS011;12727;49.934;8.656;2023-04-25T02:02:04;18.65;;;11.65;;
24559;SDS011;12727;49.934;8.656;2023-04-25T02:04:30;16.52;;;11.25;;
24559;SDS011;12727;49.934;8.656;2023-04-25T02:06:56;15.13;;;10.70;;
24559;SDS011;12727;49.934;8.656;2023-04-25T02:09:22;17.65;;;10.32;;
24559;SDS011;12727;49.934;8.656;2023-04-25T02:11:47;17.13;;;10.52;;
24559;SDS011;12727;49.934;8.656;2023-04-25T02:14:13;16.90;;;11.05;;
24559;SDS011;12727;49.934;8.656;2023-04-25T02:16:39;12.88;;;9.25;;
24559;SDS011;12727;49.934;8.656;2023-04-25T02:19:05;12.70;;;9.07;;
24559;SDS011;12727;49.934;8.656;2023-04-25T02:21:31;13.15;;;9.77;;
24559;SDS011;12727;49.934;8.656;2023-04-25T02:23:57;11.93;;;8.55;;
24559;SDS011;12727;49.934;8.656;2023-04-25T02:26:22;12.60;;;8.88;;
24559;SDS011;12727;49.934;8.656;2023-04-25T02:28:48;11.88;;;8.75;;
24559;SDS011;12727;49.934;8.656;2023-04-25T02:31:15;12.25;;;8.48;;
24559;SDS011;12727;49.934;8.656;2023-04-25T02:33:41;11.43;;;8.18;;
24559;SDS011;12727;49.934;8.656;2023-04-25T02:36:06;10.70;;;8.20;;
24559;SDS011;12727;49.934;8.656;2023-04-25T02:38:32;11.50;;;8.68;;
24559;SDS011;12727;49.934;8.656;2023-04-25T02:40:58;10.02;;;7.68;;
24559;SDS011;12727;49.934;8.656;2023-04-25T02:43:23;10.68;;;7.95;;
24559;SDS011;12727;49.934;8.656;2023-04-25T02:45:49;13.00;;;9.20;;
24559;SDS011;12727;49.934;8.656;2023-04-25T02:48:15;12.52;;;8.68;;
24559;SDS011;12727;49.934;8.656;2023-04-25T02:50:40;13.10;;;9.15;;
24559;SDS011;12727;49.934;8.656;2023-04-25T02:53:06;14.63;;;9.93;;
24559;SDS011;12727;49.934;8.656;2023-04-25T02:55:31;13.10;;;8.93;;
24559;SDS011;12727;49.934;8.656;2023-04-25T02:57:57;14.85;;;9.45;;
24559;SDS011;12727;49.934;8.656;2023-04-25T03:00:22;12.63;;;9.35;;
24559;SDS011;12727;49.934;8.656;2023-04-25T03:02:48;12.25;;;8.57;;
24559;SDS011;12727;49.934;8.656;2023-04-25T03:05:14;13.57;;;9.00;;
24559;SDS011;12727;49.934;8.656;2023-04-25T03:07:39;14.65;;;8.63;;
24559;SDS011;12727;49.934;8.656;2023-04-25T03:10:06;13.93;;;9.35;;
24559;SDS011;12727;49.934;8.656;2023-04-25T03:12:32;13.10;;;8.63;;
24559;SDS011;12727;49.934;8.656;2023-04-25T03:14:57;11.52;;;8.73;;
24559;SDS011;12727;49.934;8.656;2023-04-25T03:17:23;14.55;;;10.00;;
24559;SDS011;12727;49.934;8.656;2023-04-25T03:19:48;14.98;;;9.48;;
24559;SDS011;12727;49.934;8.656;2023-04-25T03:22:14;13.77;;;9.65;;
24559;SDS011;12727;49.934;8.656;2023-04-25T03:24:40;14.02;;;9.50;;
24559;SDS011;12727;49.934;8.656;2023-04-25T03:27:05;11.63;;;8.40;;
24559;SDS011;12727;49.934;8.656;2023-04-25T03:29:31;14.32;;;8.68;;
24559;SDS011;12727;49.934;8.656;2023-04-25T03:31:56;14.60;;;9.73;;
24559;SDS011;12727;49.934;8.656;2023-04-25T03:34:22;13.25;;;8.95;;
24559;SDS011;12727;49.934;8.656;2023-04-25T03:36:49;13.10;;;9.10;;
24559;SDS011;12727;49.934;8.656;2023-04-25T03:39:14;14.52;;;9.93;;
24559;SDS011;12727;49.934;8.656;2023-04-25T03:41:40;15.82;;;9.98;;
24559;SDS011;12727;49.934;8.656;2023-04-25T03:44:06;13.32;;;9.65;;
24559;SDS011;12727;49.934;8.656;2023-04-25T03:46:31;16.73;;;10.57;;
24559;SDS011;12727;49.934;8.656;2023-04-25T03:48:57;15.40;;;10.40;;
24559;SDS011;12727;49.934;8.656;2023-04-25T03:51:24;14.65;;;10.30;;
24559;SDS011;12727;49.934;8.656;2023-04-25T03:53:50;14.77;;;9.82;;
24559;SDS011;12727;49.934;8.656;2023-04-25T03:56:16;13.70;;;9.98;;
24559;SDS011;12727;49.934;8.656;2023-04-25T03:58:41;10.52;;;8.13;;
24559;SDS011;12727;49.934;8.656;2023-04-25T04:01:07;12.65;;;9.65;;
24559;SDS011;12727;49.934;8.656;2023-04-25T04:03:36;11.77;;;9.32;;
24559;SDS011;12727;49.934;8.656;2023-04-25T04:06:02;15.07;;;10.23;;
24559;SDS011;12727;49.934;8.656;2023-04-25T04:08:29;14.75;;;10.55;;
24559;SDS011;12727;49.934;8.656;2023-04-25T04:10:55;13.52;;;9.82;;
24559;SDS011;12727;49.934;8.656;2023-04-25T04:13:21;14.65;;;10.63;;
24559;SDS011;12727;49.934;8.656;2023-04-25T04:15:47;14.55;;;9.82;;
24559;SDS011;12727;49.934;8.656;2023-04-25T04:18:12;14.18;;;8.90;;
24559;SDS011;12727;49.934;8.656;2023-04-25T04:20:38;15.82;;;9.77;;
24559;SDS011;12727;49.934;8.656;2023-04-25T04:23:04;16.88;;;10.77;;
24559;SDS011;12727;49.934;8.656;2023-04-25T04:25:30;17.27;;;11.85;;
24559;SDS011;12727;49.934;8.656;2023-04-25T04:27:55;17.30;;;11.45;;
24559;SDS011;12727;49.934;8.656;2023-04-25T04:30:22;17.77;;;11.63;;
24559;SDS011;12727;49.934;8.656;2023-04-25T04:32:49;18.35;;;11.40;;
24559;SDS011;12727;49.934;8.656;2023-04-25T04:35:15;16.02;;;10.30;;
24559;SDS011;12727;49.934;8.656;2023-04-25T04:37:40;15.43;;;9.65;;
24559;SDS011;12727;49.934;8.656;2023-04-25T04:40:06;14.35;;;8.90;;
24559;SDS011;12727;49.934;8.656;2023-04-25T04:42:32;14.27;;;9.45;;
24559;SDS011;12727;49.934;8.656;2023-04-25T04:44:58;13.18;;;8.02;;
24559;SDS011;12727;49.934;8.656;2023-04-25T04:47:26;13.00;;;8.18;;
24559;SDS011;12727;49.934;8.656;2023-04-25T04:49:55;15.60;;;9.07;;
24559;SDS011;12727;49.934;8.656;2023-04-25T04:52:21;21.23;;;10.23;;
24559;SDS011;12727;49.934;8.656;2023-04-25T04:54:46;15.95;;;9.85;;
24559;SDS011;12727;49.934;8.656;2023-04-25T04:57:12;17.02;;;9.45;;
24559;SDS011;12727;49.934;8.656;2023-04-25T04:59:37;14.38;;;9.75;;
24559;SDS011;12727;49.934;8.656;2023-04-25T05:02:03;16.33;;;8.98;;
24559;SDS011;12727;49.934;8.656;2023-04-25T05:04:28;13.95;;;8.95;;
24559;SDS011;12727;49.934;8.656;2023-04-25T05:06:54;17.88;;;9.82;;
24559;SDS011;12727;49.934;8.656;2023-04-25T05:09:19;17.15;;;9.70;;
24559;SDS011;12727;49.934;8.656;2023-04-25T05:11:45;15.73;;;9.77;;
24559;SDS011;12727;49.934;8.656;2023-04-25T05:14:11;14.73;;;8.73;;
24559;SDS011;12727;49.934;8.656;2023-04-25T05:16:36;14.20;;;8.63;;
24559;SDS011;12727;49.934;8.656;2023-04-25T05:19:02;16.27;;;8.30;;
24559;SDS011;12727;49.934;8.656;2023-04-25T05:21:27;16.58;;;9.00;;
24559;SDS011;12727;49.934;8.656;2023-04-25T05:23:53;15.63;;;9.02;;
24559;SDS011;12727;49.934;8.656;2023-04-25T05:26:19;18.02;;;8.70;;
24559;SDS011;12727;49.934;8.656;2023-04-25T05:28:45;17.10;;;9.63;;
24559;SDS011;12727;49.934;8.656;2023-04-25T05:31:11;15.07;;;8.65;;
24559;SDS011;12727;49.934;8.656;2023-04-25T05:33:37;18.85;;;9.38;;
24559;SDS011;12727;49.934;8.656;2023-04-25T05:36:02;16.63;;;8.95;;
24559;SDS011;12727;49.934;8.656;2023-04-25T05:38:28;18.00;;;8.27;;
24559;SDS011;12727;49.934;8.656;2023-04-25T05:40:54;19.65;;;8.95;;
24559;SDS011;12727;49.934;8.656;2023-04-25T05:43:20;20.23;;;8.73;;
24559;SDS011;12727;49.934;8.656;2023-04-25T05:45:46;22.75;;;9.88;;
24559;SDS011;12727;49.934;8.656;2023-04-25T05:48:11;21.42;;;10.10;;
24559;SDS011;12727;49.934;8.656;2023-04-25T05:50:37;25.00;;;10.52;;
24559;SDS011;12727;49.934;8.656;2023-04-25T05:53:02;17.13;;;8.85;;
24559;SDS011;12727;49.934;8.656;2023-04-25T05:55:28;15.30;;;8.55;;
24559;SDS011;12727;49.934;8.656;2023-04-25T05:57:54;15.60;;;7.32;;
24559;SDS011;12727;49.934;8.656;2023-04-25T06:00:19;12.55;;;7.72;;
24559;SDS011;12727;49.934;8.656;2023-04-25T06:02:47;14.30;;;8.70;;
24559;SDS011;12727;49.934;8.656;2023-04-25T06:05:13;16.83;;;8.65;;
24559;SDS011;12727;49.934;8.656;2023-04-25T06:07:38;12.68;;;7.28;;
24559;SDS011;12727;49.934;8.656;2023-04-25T06:10:04;16.13;;;7.85;;
24559;SDS011;12727;49.934;8.656;2023-04-25T06:12:31;16.63;;;7.85;;
24559;SDS011;12727;49.934;8.656;2023-04-25T06:14:58;13.23;;;8.00;;
24559;SDS011;12727;49.934;8.656;2023-04-25T06:17:24;16.45;;;8.40;;
24559;SDS011;12727;49.934;8.656;2023-04-25T06:19:49;17.52;;;7.32;;
24559;SDS011;12727;49.934;8.656;2023-04-25T06:22:15;14.63;;;7.32;;
24559;SDS011;12727;49.934;8.656;2023-04-25T06:24:40;13.15;;;7.65;;
24559;SDS011;12727;49.934;8.656;2023-04-25T06:27:06;12.13;;;6.60;;
24559;SDS011;12727;49.934;8.656;2023-04-25T06:29:31;14.18;;;6.07;;
24559;SDS011;12727;49.934;8.656;2023-04-25T06:31:57;12.63;;;5.85;;
24559;SDS011;12727;49.934;8.656;2023-04-25T06:34:23;11.30;;;6.18;;
24559;SDS011;12727;49.934;8.656;2023-04-25T06:36:50;12.30;;;5.82;;
24559;SDS011;12727;49.934;8.656;2023-04-25T06:39:15;11.75;;;5.38;;
24559;SDS011;12727;49.934;8.656;2023-04-25T06:41:41;14.10;;;5.95;;
24559;SDS011;12727;49.934;8.656;2023-04-25T06:44:06;12.30;;;5.25;;
24559;SDS011;12727;49.934;8.656;2023-04-25T06:46:32;10.40;;;5.63;;
24559;SDS011;12727;49.934;8.656;2023-04-25T06:48:57;10.55;;;5.00;;
24559;SDS011;12727;49.934;8.656;2023-04-25T06:51:23;12.75;;;4.93;;
24559;SDS011;12727;49.934;8.656;2023-04-25T06:53:49;11.77;;;4.93;;
24559;SDS011;12727;49.934;8.656;2023-04-25T06:56:15;6.72;;;4.28;;
24559;SDS011;12727;49.934;8.656;2023-04-25T06:58:41;9.20;;;4.28;;
24559;SDS011;12727;49.934;8.656;2023-04-25T07:01:06;9.73;;;4.40;;
24559;SDS011;12727;49.934;8.656;2023-04-25T07:03:32;6.28;;;3.72;;
24559;SDS011;12727;49.934;8.656;2023-04-25T07:05:57;6.68;;;3.28;;
24559;SDS011;12727;49.934;8.656;2023-04-25T07:08:23;9.82;;;3.65;;
24559;SDS011;12727;49.934;8.656;2023-04-25T07:10:48;7.45;;;3.17;;
24559;SDS011;12727;49.934;8.656;2023-04-25T07:13:14;8.45;;;3.95;;
24559;SDS011;12727;49.934;8.656;2023-04-25T07:15:40;5.15;;;3.10;;
24559;SDS011;12727;49.934;8.656;2023-04-25T07:18:05;7.28;;;3.13;;
24559;SDS011;12727;49.934;8.656;2023-04-25T07:20:31;10.23;;;3.75;;
24559;SDS011;12727;49.934;8.656;2023-04-25T07:22:59;6.32;;;3.20;;
24559;SDS011;12727;49.934;8.656;2023-04-25T07:25:24;6.78;;;3.33;;
24559;SDS011;12727;49.934;8.656;2023-04-25T07:27:50;7.07;;;3.65;;
24559;SDS011;12727;49.934;8.656;2023-04-25T07:30:15;8.65;;;3.97;;
24559;SDS011;12727;49.934;8.656;2023-04-25T07:32:41;8.05;;;3.63;;
24559;SDS011;12727;49.934;8.656;2023-04-25T07:35:07;7.13;;;3.22;;
24559;SDS011;12727;49.934;8.656;2023-04-25T07:37:36;7.18;;;3.10;;
24559;SDS011;12727;49.934;8.656;2023-04-25T07:40:02;5.63;;;2.53;;
24559;SDS011;12727;49.934;8.656;2023-04-25T07:42:28;6.40;;;3.03;;
24559;SDS011;12727;49.934;8.656;2023-04-25T07:44:54;5.70;;;2.95;;
24559;SDS011;12727;49.934;8.656;2023-04-25T07:47:20;4.22;;;2.50;;
24559;SDS011;12727;49.934;8.656;2023-04-25T07:49:46;6.90;;;2.72;;
24559;SDS011;12727;49.934;8.656;2023-04-25T07:52:12;4.30;;;2.05;;
24559;SDS011;12727;49.934;8.656;2023-04-25T07:54:38;6.70;;;2.80;;
24559;SDS011;12727;49.934;8.656;2023-04-25T07:57:03;8.55;;;2.50;;
24559;SDS011;12727;49.934;8.656;2023-04-25T07:59:31;6.95;;;2.78;;
24559;SDS011;12727;49.934;8.656;2023-04-25T08:01:56;6.45;;;2.35;;
24559;SDS011;12727;49.934;8.656;2023-04-25T08:04:22;8.63;;;2.60;;
24559;SDS011;12727;49.934;8.656;2023-04-25T08:06:48;8.85;;;3.10;;
24559;SDS011;12727;49.934;8.656;2023-04-25T08:09:15;5.93;;;2.00;;
24559;SDS011;12727;49.934;8.656;2023-04-25T08:11:40;8.32;;;2.35;;
24559;SDS011;12727;49.934;8.656;2023-04-25T08:14:06;6.18;;;2.60;;
24559;SDS011;12727;49.934;8.656;2023-04-25T08:16:32;8.30;;;2.60;;
24559;SDS011;12727;49.934;8.656;2023-04-25T08:19:03;7.38;;;2.63;;
24559;SDS011;12727;49.934;8.656;2023-04-25T08:21:30;7.90;;;2.70;;
24559;SDS011;12727;49.934;8.656;2023-04-25T08:23:56;9.35;;;2.70;;
24559;SDS011;12727;49.934;8.656;2023-04-25T08:26:23;6.97;;;2.60;;
24559;SDS011;12727;49.934;8.656;2023-04-25T08:28:49;5.97;;;2.58;;
24559;SDS011;12727;49.934;8.656;2023-04-25T08:31:15;5.20;;;2.85;;
24559;SDS011;12727;49.934;8.656;2023-04-25T08:33:41;6.93;;;2.28;;
24559;SDS011;12727;49.934;8.656;2023-04-25T08:36:06;7.28;;;2.55;;
24559;SDS011;12727;49.934;8.656;2023-04-25T08:38:32;5.70;;;2.58;;
24559;SDS011;12727;49.934;8.656;2023-04-25T08:40:58;4.53;;;2.10;;
24559;SDS011;12727;49.934;8.656;2023-04-25T08:43:25;4.93;;;2.10;;
24559;SDS011;12727;49.934;8.656;2023-04-25T08:45:53;4.00;;;1.92;;
24559;SDS011;12727;49.934;8.656;2023-04-25T08:48:23;4.90;;;2.00;;
24559;SDS011;12727;49.934;8.656;2023-04-25T08:50:53;2.72;;;1.73;;
24559;SDS011;12727;49.934;8.656;2023-04-25T08:53:21;5.88;;;2.00;;
24559;SDS011;12727;49.934;8.656;2023-04-25T08:55:50;6.25;;;2.28;;
24559;SDS011;12727;49.934;8.656;2023-04-25T08:58:17;4.35;;;2.10;;
24559;SDS011;12727;49.934;8.656;2023-04-25T09:00:43;4.28;;;2.30;;
24559;SDS011;12727;49.934;8.656;2023-04-25T09:03:11;3.90;;;2.60;;
24559;SDS011;12727;49.934;8.656;2023-04-25T09:05:36;4.60;;;2.20;;
24559;SDS011;12727;49.934;8.656;2023-04-25T09:08:02;5.05;;;2.20;;
24559;SDS011;12727;49.934;8.656;2023-04-25T09:10:28;7.28;;;2.28;;
24559;SDS011;12727;49.934;8.656;2023-04-25T09:15:33;3.53;;;1.75;;
24559;SDS011;12727;49.934;8.656;2023-04-25T09:18:22;4.70;;;1.90;;
24559;SDS011;12727;49.934;8.656;2023-04-25T09:20:49;5.38;;;2.13;;
24559;SDS011;12727;49.934;8.656;2023-04-25T09:23:14;4.30;;;2.63;;
24559;SDS011;12727;49.934;8.656;2023-04-25T09:25:40;4.20;;;2.25;;
24559;SDS011;12727;49.934;8.656;2023-04-25T09:28:07;4.13;;;2.40;;
24559;SDS011;12727;49.934;8.656;2023-04-25T09:30:35;5.65;;;2.67;;
24559;SDS011;12727;49.934;8.656;2023-04-25T09:33:04;5.82;;;3.00;;
24559;SDS011;12727;49.934;8.656;2023-04-25T09:35:35;5.03;;;3.10;;
24559;SDS011;12727;49.934;8.656;2023-04-25T09:38:08;4.07;;;2.30;;
24559;SDS011;12727;49.934;8.656;2023-04-25T09:40:38;5.60;;;2.83;;
24559;SDS011;12727;49.934;8.656;2023-04-25T09:43:09;5.72;;;2.80;;
24559;SDS011;12727;49.934;8.656;2023-04-25T09:45:42;4.47;;;2.70;;
24559;SDS011;12727;49.934;8.656;2023-04-25T09:48:12;4.80;;;2.95;;
24559;SDS011;12727;49.934;8.656;2023-04-25T09:50:42;6.63;;;2.65;;
24559;SDS011;12727;49.934;8.656;2023-04-25T09:53:08;4.63;;;2.72;;
24559;SDS011;12727;49.934;8.656;2023-04-25T09:55:34;5.60;;;2.83;;
24559;SDS011;12727;49.934;8.656;2023-04-25T09:58:04;5.13;;;2.72;;
24559;SDS011;12727;49.934;8.656;2023-04-25T10:00:32;5.68;;;2.60;;
24559;SDS011;12727;49.934;8.656;2023-04-25T10:03:01;5.40;;;2.80;;
24559;SDS011;12727;49.934;8.656;2023-04-25T10:05:29;4.80;;;2.70;;
24559;SDS011;12727;49.934;8.656;2023-04-25T10:07:57;5.13;;;2.70;;
24559;SDS011;12727;49.934;8.656;2023-04-25T10:10:26;6.57;;;3.40;;
24559;SDS011;12727;49.934;8.656;2023-04-25T10:12:55;6.05;;;3.10;;
24559;SDS011;12727;49.934;8.656;2023-04-25T10:15:21;7.22;;;3.15;;
24559;SDS011;12727;49.934;8.656;2023-04-25T10:17:47;5.43;;;3.75;;
24559;SDS011;12727;49.934;8.656;2023-04-25T10:20:14;4.85;;;3.30;;
24559;SDS011;12727;49.934;8.656;2023-04-25T10:22:44;5.35;;;3.67;;
24559;SDS011;12727;49.934;8.656;2023-04-25T10:25:11;7.47;;;4.40;;
24559;SDS011;12727;49.934;8.656;2023-04-25T10:27:38;7.78;;;4.28;;
24559;SDS011;12727;49.934;8.656;2023-04-25T10:30:08;7.40;;;4.20;;
24559;SDS011;12727;49.934;8.656;2023-04-25T10:32:37;5.43;;;3.97;;
24559;SDS011;12727;49.934;8.656;2023-04-25T10:35:16;6.68;;;3.67;;
24559;SDS011;12727;49.934;8.656;2023-04-25T10:40:35;6.00;;;3.45;;
24559;SDS011;12727;49.934;8.656;2023-04-25T10:46:13;9.25;;;3.75;;
24559;SDS011;12727;49.934;8.656;2023-04-25T10:48:50;8.63;;;4.13;;
24559;SDS011;12727;49.934;8.656;2023-04-25T10:51:24;8.93;;;4.57;;
24559;SDS011;12727;49.934;8.656;2023-04-25T10:56:21;7.85;;;4.03;;
24559;SDS011;12727;49.934;8.656;2023-04-25T11:01:44;8.25;;;3.63;;
24559;SDS011;12727;49.934;8.656;2023-04-25T11:04:25;8.32;;;4.70;;
24559;SDS011;12727;49.934;8.656;2023-04-25T11:07:00;7.95;;;4.10;;
24559;SDS011;12727;49.934;8.656;2023-04-25T11:09:28;5.97;;;4.15;;
24559;SDS011;12727;49.934;8.656;2023-04-25T11:11:55;6.80;;;4.55;;
24559;SDS011;12727;49.934;8.656;2023-04-25T11:14:21;8.80;;;3.72;;
24559;SDS011;12727;49.934;8.656;2023-04-25T11:16:52;8.57;;;3.78;;
24559;SDS011;12727;49.934;8.656;2023-04-25T11:19:20;14.13;;;4.82;;
24559;SDS011;12727;49.934;8.656;2023-04-25T11:21:45;12.85;;;5.35;;
24559;SDS011;12727;49.934;8.656;2023-04-25T11:24:11;8.85;;;4.03;;
24559;SDS011;12727;49.934;8.656;2023-04-25T11:26:37;9.43;;;4.18;;
24559;SDS011;12727;49.934;8.656;2023-04-25T11:29:02;8.93;;;4.93;;
24559;SDS011;12727;49.934;8.656;2023-04-25T11:31:28;9.25;;;4.80;;
24559;SDS011;12727;49.934;8.656;2023-04-25T11:33:56;6.57;;;4.40;;
24559;SDS011;12727;49.934;8.656;2023-04-25T11:36:22;9.88;;;4.93;;
24559;SDS011;12727;49.934;8.656;2023-04-25T11:38:50;7.80;;;4.50;;
24559;SDS011;12727;49.934;8.656;2023-04-25T11:41:16;7.78;;;4.40;;
24559;SDS011;12727;49.934;8.656;2023-04-25T11:43:43;8.50;;;4.78;;
24559;SDS011;12727;49.934;8.656;2023-04-25T11:46:09;8.43;;;4.40;;
24559;SDS011;12727;49.934;8.656;2023-04-25T11:48:40;8.32;;;4.63;;
24559;SDS011;12727;49.934;8.656;2023-04-25T11:51:07;6.47;;;4.28;;
24559;SDS011;12727;49.934;8.656;2023-04-25T11:53:33;7.90;;;4.65;;
24559;SDS011;12727;49.934;8.656;2023-04-25T11:55:59;9.45;;;4.25;;
24559;SDS011;12727;49.934;8.656;2023-04-25T11:58:25;9.95;;;4.15;;
24559;SDS011;12727;49.934;8.656;2023-04-25T12:00:51;7.13;;;3.42;;
24559;SDS011;12727;49.934;8.656;2023-04-25T12:03:17;7.90;;;3.72;;
24559;SDS011;12727;49.934;8.656;2023-04-25T12:05:44;7.13;;;4.32;;
24559;SDS011;12727;49.934;8.656;2023-04-25T12:08:11;9.30;;;4.63;;
24559;SDS011;12727;49.934;8.656;2023-04-25T12:10:38;10.20;;;4.03;;
24559;SDS011;12727;49.934;8.656;2023-04-25T12:13:21;11.98;;;4.20;;
24559;SDS011;12727;49.934;8.656;2023-04-25T12:15:49;8.65;;;4.30;;
24559;SDS011;12727;49.934;8.656;2023-04-25T12:18:15;9.65;;;4.00;;
24559;SDS011;12727;49.934;8.656;2023-04-25T12:20:44;7.00;;;3.92;;
24559;SDS011;12727;49.934;8.656;2023-04-25T12:23:10;8.32;;;3.65;;
24559;SDS011;12727;49.934;8.656;2023-04-25T12:28:22;9.10;;;3.47;;
24559;SDS011;12727;49.934;8.656;2023-04-25T12:30:52;9.13;;;3.22;;
24559;SDS011;12727;49.934;8.656;2023-04-25T12:33:32;9.10;;;4.28;;
24559;SDS011;12727;49.934;8.656;2023-04-25T12:35:59;8.77;;;4.10;;
24559;SDS011;12727;49.934;8.656;2023-04-25T12:38:29;8.00;;;3.40;;
24559;SDS011;12727;49.934;8.656;2023-04-25T12:40:56;5.15;;;2.88;;
24559;SDS011;12727;49.934;8.656;2023-04-25T12:43:22;6.72;;;3.17;;
24559;SDS011;12727;49.934;8.656;2023-04-25T12:45:49;6.13;;;3.20;;
24559;SDS011;12727;49.934;8.656;2023-04-25T12:48:16;7.05;;;3.80;;
24559;SDS011;12727;49.934;8.656;2023-04-25T12:50:41;7.07;;;3.70;;
24559;SDS011;12727;49.934;8.656;2023-04-25T12:53:07;9.10;;;3.00;;
24559;SDS011;12727;49.934;8.656;2023-04-25T12:55:33;5.88;;;3.13;;
24559;SDS011;12727;49.934;8.656;2023-04-25T12:57:59;6.28;;;2.90;;
24559;SDS011;12727;49.934;8.656;2023-04-25T13:00:24;10.45;;;3.28;;
24559;SDS011;12727;49.934;8.656;2023-04-25T13:02:51;8.23;;;3.17;;
24559;SDS011;12727;49.934;8.656;2023-04-25T13:05:17;11.02;;;3.95;;
24559;SDS011;12727;49.934;8.656;2023-04-25T13:07:42;8.15;;;3.58;;
24559;SDS011;12727;49.934;8.656;2023-04-25T13:10:08;7.40;;;3.78;;
24559;SDS011;12727;49.934;8.656;2023-04-25T13:12:33;7.53;;;3.38;;
24559;SDS011;12727;49.934;8.656;2023-04-25T13:14:59;6.90;;;3.40;;
24559;SDS011;12727;49.934;8.656;2023-04-25T13:17:24;7.72;;;2.30;;
24559;SDS011;12727;49.934;8.656;2023-04-25T13:19:50;5.43;;;2.53;;
24559;SDS011;12727;49.934;8.656;2023-04-25T13:22:16;8.27;;;3.20;;
24559;SDS011;12727;49.934;8.656;2023-04-25T13:24:44;6.57;;;2.80;;
24559;SDS011;12727;49.934;8.656;2023-04-25T13:27:09;5.60;;;2.95;;
24559;SDS011;12727;49.934;8.656;2023-04-25T13:29:35;6.40;;;3.13;;
24559;SDS011;12727;49.934;8.656;2023-04-25T13:32:03;6.90;;;2.53;;
24559;SDS011;12727;49.934;8.656;2023-04-25T13:34:28;11.35;;;2.85;;
24559;SDS011;12727;49.934;8.656;2023-04-25T13:36:54;6.13;;;2.45;;
24559;SDS011;12727;49.934;8.656;2023-04-25T13:39:20;6.22;;;2.65;;
24559;SDS011;12727;49.934;8.656;2023-04-25T13:41:45;7.28;;;2.80;;
24559;SDS011;12727;49.934;8.656;2023-04-25T13:44:11;7.03;;;3.25;;
24559;SDS011;12727;49.934;8.656;2023-04-25T13:46:37;7.68;;;2.92;;
24559;SDS011;12727;49.934;8.656;2023-04-25T13:49:05;5.63;;;2.75;;
24559;SDS011;12727;49.934;8.656;2023-04-25T13:51:31;6.38;;;3.20;;
24559;SDS011;12727;49.934;8.656;2023-04-25T13:53:57;7.55;;;3.20;;
24559;SDS011;12727;49.934;8.656;2023-04-25T13:56:23;5.50;;;2.80;;
24559;SDS011;12727;49.934;8.656;2023-04-25T13:58:51;6.53;;;3.15;;
24559;SDS011;12727;49.934;8.656;2023-04-25T14:01:17;6.50;;;3.28;;
24559;SDS011;12727;49.934;8.656;2023-04-25T14:03:43;7.18;;;3.00;;
24559;SDS011;12727;49.934;8.656;2023-04-25T14:06:10;9.07;;;3.55;;
24559;SDS011;12727;49.934;8.656;2023-04-25T14:08:37;9.68;;;2.80;;
24559;SDS011;12727;49.934;8.656;2023-04-25T14:11:03;6.55;;;3.30;;
24559;SDS011;12727;49.934;8.656;2023-04-25T14:13:28;6.10;;;2.92;;
24559;SDS011;12727;49.934;8.656;2023-04-25T14:15:54;7.93;;;3.03;;
24559;SDS011;12727;49.934;8.656;2023-04-25T14:18:20;5.85;;;2.80;;
24559;SDS011;12727;49.934;8.656;2023-04-25T14:20:46;6.03;;;2.95;;
24559;SDS011;12727;49.934;8.656;2023-04-25T14:23:15;5.47;;;3.42;;
24559;SDS011;12727;49.934;8.656;2023-04-25T14:25:42;5.18;;;2.78;;
24559;SDS011;12727;49.934;8.656;2023-04-25T14:28:08;5.68;;;2.75;;
24559;SDS011;12727;49.934;8.656;2023-04-25T14:30:35;5.72;;;2.78;;
24559;SDS011;12727;49.934;8.656;2023-04-25T14:33:00;7.82;;;3.10;;
24559;SDS011;12727;49.934;8.656;2023-04-25T14:35:26;7.70;;;3.95;;
24559;SDS011;12727;49.934;8.656;2023-04-25T14:37:52;5.85;;;3.10;;
24559;SDS011;12727;49.934;8.656;2023-04-25T14:40:18;6.65;;;3.28;;
24559;SDS011;12727;49.934;8.656;2023-04-25T14:42:47;7.95;;;3.70;;
24559;SDS011;12727;49.934;8.656;2023-04-25T14:45:12;8.57;;;3.80;;
24559;SDS011;12727;49.934;8.656;2023-04-25T14:47:38;8.68;;;3.38;;
24559;SDS011;12727;49.934;8.656;2023-04-25T14:50:05;7.57;;;3.20;;
24559;SDS011;12727;49.934;8.656;2023-04-25T14:52:32;5.90;;;2.90;;
24559;SDS011;12727;49.934;8.656;2023-04-25T14:54:57;5.40;;;2.97;;